sensor_id;sensor_type;location;lat;lon;timestamp;P1;durP1;ratioP1;P2;durP2;ratioP2
24745;SDS011;12845;52.042;6.838;2022-09-09T00:00:06;5.38;;;3.50;;
24745;SDS011;12845;52.042;6.838;2022-09-09T00:02:37;5.53;;;3.13;;
24745;SDS011;12845;52.042;6.838;2022-09-09T00:07:48;4.63;;;3.05;;
24745;SDS011;12845;52.042;6.838;2022-09-09T00:13:39;7.15;;;3.10;;
24745;SDS011;12845;52.042;6.838;2022-09-09T00:15:55;5.32;;;2.95;;
24745;SDS011;12845;52.042;6.838;2022-09-09T00:18:31;4.60;;;2.40;;
24745;SDS011;12845;52.042;6.838;2022-09-09T00:21:05;4.43;;;3.05;;
24745;SDS011;12845;52.042;6.838;2022-09-09T00:23:39;5.82;;;3.00;;
24745;SDS011;12845;52.042;6.838;2022-09-09T00:26:12;5.22;;;2.33;;
24745;SDS011;12845;52.042;6.838;2022-09-09T00:28:48;5.25;;;2.65;;
24745;SDS011;12845;52.042;6.838;2022-09-09T00:31:15;5.25;;;2.90;;
24745;SDS011;12845;52.042;6.838;2022-09-09T00:33:43;5.95;;;3.15;;
24745;SDS011;12845;52.042;6.838;2022-09-09T00:36:16;4.05;;;2.70;;
24745;SDS011;12845;52.042;6.838;2022-09-09T00:38:47;4.20;;;2.60;;
24745;SDS011;12845;52.042;6.838;2022-09-09T00:43:46;3.95;;;2.42;;
24745;SDS011;12845;52.042;6.838;2022-09-09T00:48:48;5.38;;;2.30;;
24745;SDS011;12845;52.042;6.838;2022-09-09T00:59:35;7.90;;;3.10;;
24745;SDS011;12845;52.042;6.838;2022-09-09T01:02:28;4.70;;;2.97;;
24745;SDS011;12845;52.042;6.838;2022-09-09T01:04:54;5.28;;;3.25;;
24745;SDS011;12845;52.042;6.838;2022-09-09T01:07:25;4.15;;;3.00;;
24745;SDS011;12845;52.042;6.838;2022-09-09T01:09:57;4.28;;;3.50;;
24745;SDS011;12845;52.042;6.838;2022-09-09T01:12:28;4.28;;;3.08;;
24745;SDS011;12845;52.042;6.838;2022-09-09T01:15:07;5.35;;;3.08;;
24745;SDS011;12845;52.042;6.838;2022-09-09T01:17:36;6.15;;;3.67;;
24745;SDS011;12845;52.042;6.838;2022-09-09T01:20:23;5.03;;;3.13;;
24745;SDS011;12845;52.042;6.838;2022-09-09T01:28:30;7.35;;;4.00;;
24745;SDS011;12845;52.042;6.838;2022-09-09T01:30:55;5.93;;;4.25;;
24745;SDS011;12845;52.042;6.838;2022-09-09T01:33:22;5.15;;;4.25;;
24745;SDS011;12845;52.042;6.838;2022-09-09T01:35:52;5.63;;;4.05;;
24745;SDS011;12845;52.042;6.838;2022-09-09T01:38:22;5.45;;;3.63;;
24745;SDS011;12845;52.042;6.838;2022-09-09T01:40:50;5.68;;;4.05;;
24745;SDS011;12845;52.042;6.838;2022-09-09T01:43:17;7.30;;;3.90;;
24745;SDS011;12845;52.042;6.838;2022-09-09T01:45:44;4.50;;;3.70;;
24745;SDS011;12845;52.042;6.838;2022-09-09T01:48:10;5.82;;;4.05;;
24745;SDS011;12845;52.042;6.838;2022-09-09T01:50:36;7.45;;;4.65;;
24745;SDS011;12845;52.042;6.838;2022-09-09T01:53:01;5.88;;;4.40;;
24745;SDS011;12845;52.042;6.838;2022-09-09T01:55:31;6.18;;;4.32;;
24745;SDS011;12845;52.042;6.838;2022-09-09T01:58:22;6.35;;;4.35;;
24745;SDS011;12845;52.042;6.838;2022-09-09T02:01:14;6.47;;;4.80;;
24745;SDS011;12845;52.042;6.838;2022-09-09T02:03:56;8.00;;;5.40;;
24745;SDS011;12845;52.042;6.838;2022-09-09T02:06:27;6.47;;;4.90;;
24745;SDS011;12845;52.042;6.838;2022-09-09T02:08:59;7.85;;;5.10;;
24745;SDS011;12845;52.042;6.838;2022-09-09T02:11:28;8.75;;;5.65;;
24745;SDS011;12845;52.042;6.838;2022-09-09T02:13:56;6.13;;;5.53;;
24745;SDS011;12845;52.042;6.838;2022-09-09T02:21:33;9.10;;;6.20;;
24745;SDS011;12845;52.042;6.838;2022-09-09T02:24:03;9.17;;;6.80;;
24745;SDS011;12845;52.042;6.838;2022-09-09T02:26:33;7.40;;;6.30;;
24745;SDS011;12845;52.042;6.838;2022-09-09T02:29:01;7.95;;;6.13;;
24745;SDS011;12845;52.042;6.838;2022-09-09T02:31:31;6.82;;;5.93;;
24745;SDS011;12845;52.042;6.838;2022-09-09T02:33:59;7.78;;;5.75;;
24745;SDS011;12845;52.042;6.838;2022-09-09T02:36:26;7.80;;;6.15;;
24745;SDS011;12845;52.042;6.838;2022-09-09T02:38:58;8.52;;;6.47;;
24745;SDS011;12845;52.042;6.838;2022-09-09T02:41:35;8.50;;;6.50;;
24745;SDS011;12845;52.042;6.838;2022-09-09T02:44:05;7.63;;;5.90;;
24745;SDS011;12845;52.042;6.838;2022-09-09T02:49:29;9.13;;;6.07;;
24745;SDS011;12845;52.042;6.838;2022-09-09T02:52:18;8.03;;;5.97;;
24745;SDS011;12845;52.042;6.838;2022-09-09T02:54:50;9.15;;;6.45;;
24745;SDS011;12845;52.042;6.838;2022-09-09T02:57:23;8.25;;;5.60;;
24745;SDS011;12845;52.042;6.838;2022-09-09T02:59:52;7.00;;;6.10;;
24745;SDS011;12845;52.042;6.838;2022-09-09T03:02:19;7.50;;;6.68;;
24745;SDS011;12845;52.042;6.838;2022-09-09T03:04:45;7.20;;;6.22;;
24745;SDS011;12845;52.042;6.838;2022-09-09T03:07:15;9.85;;;6.10;;
24745;SDS011;12845;52.042;6.838;2022-09-09T03:09:42;9.13;;;7.43;;
24745;SDS011;12845;52.042;6.838;2022-09-09T03:12:07;8.82;;;6.78;;
24745;SDS011;12845;52.042;6.838;2022-09-09T03:14:32;10.30;;;7.53;;
24745;SDS011;12845;52.042;6.838;2022-09-09T03:16:57;11.75;;;7.63;;
24745;SDS011;12845;52.042;6.838;2022-09-09T03:19:25;10.05;;;8.15;;
24745;SDS011;12845;52.042;6.838;2022-09-09T03:21:52;12.23;;;9.32;;
24745;SDS011;12845;52.042;6.838;2022-09-09T03:24:18;11.43;;;9.07;;
24745;SDS011;12845;52.042;6.838;2022-09-09T03:26:43;12.82;;;9.73;;
24745;SDS011;12845;52.042;6.838;2022-09-09T03:29:12;12.98;;;9.80;;
24745;SDS011;12845;52.042;6.838;2022-09-09T03:31:37;11.98;;;9.20;;
24745;SDS011;12845;52.042;6.838;2022-09-09T03:34:04;11.55;;;9.95;;
24745;SDS011;12845;52.042;6.838;2022-09-09T03:36:30;13.63;;;10.57;;
24745;SDS011;12845;52.042;6.838;2022-09-09T03:38:56;14.88;;;11.20;;
24745;SDS011;12845;52.042;6.838;2022-09-09T03:41:23;16.63;;;12.20;;
24745;SDS011;12845;52.042;6.838;2022-09-09T03:43:51;19.73;;;11.88;;
24745;SDS011;12845;52.042;6.838;2022-09-09T03:46:17;17.85;;;11.68;;
24745;SDS011;12845;52.042;6.838;2022-09-09T03:48:43;18.60;;;13.80;;
24745;SDS011;12845;52.042;6.838;2022-09-09T03:51:10;17.42;;;13.05;;
24745;SDS011;12845;52.042;6.838;2022-09-09T03:53:36;19.65;;;13.60;;
24745;SDS011;12845;52.042;6.838;2022-09-09T03:56:03;16.63;;;14.23;;
24745;SDS011;12845;52.042;6.838;2022-09-09T03:58:31;19.45;;;13.43;;
24745;SDS011;12845;52.042;6.838;2022-09-09T04:01:02;18.60;;;15.32;;
24745;SDS011;12845;52.042;6.838;2022-09-09T04:03:29;20.85;;;14.25;;
24745;SDS011;12845;52.042;6.838;2022-09-09T04:05:56;19.60;;;14.38;;
24745;SDS011;12845;52.042;6.838;2022-09-09T04:08:23;18.73;;;14.82;;
24745;SDS011;12845;52.042;6.838;2022-09-09T04:10:51;18.88;;;14.95;;
24745;SDS011;12845;52.042;6.838;2022-09-09T04:13:17;19.17;;;14.75;;
24745;SDS011;12845;52.042;6.838;2022-09-09T04:15:48;19.38;;;16.10;;
24745;SDS011;12845;52.042;6.838;2022-09-09T04:18:14;16.70;;;14.80;;
24745;SDS011;12845;52.042;6.838;2022-09-09T04:20:40;21.35;;;13.65;;
24745;SDS011;12845;52.042;6.838;2022-09-09T04:23:05;21.17;;;15.85;;
24745;SDS011;12845;52.042;6.838;2022-09-09T04:25:30;18.40;;;15.82;;
24745;SDS011;12845;52.042;6.838;2022-09-09T04:27:56;17.67;;;15.15;;
24745;SDS011;12845;52.042;6.838;2022-09-09T04:30:22;19.88;;;16.05;;
24745;SDS011;12845;52.042;6.838;2022-09-09T04:32:48;21.02;;;15.60;;
24745;SDS011;12845;52.042;6.838;2022-09-09T04:35:14;20.45;;;14.80;;
24745;SDS011;12845;52.042;6.838;2022-09-09T04:37:45;19.95;;;15.55;;
24745;SDS011;12845;52.042;6.838;2022-09-09T04:40:10;18.30;;;14.43;;
24745;SDS011;12845;52.042;6.838;2022-09-09T04:42:36;20.45;;;14.95;;
24745;SDS011;12845;52.042;6.838;2022-09-09T04:45:02;21.75;;;14.88;;
24745;SDS011;12845;52.042;6.838;2022-09-09T04:47:27;18.65;;;14.90;;
24745;SDS011;12845;52.042;6.838;2022-09-09T04:49:53;17.98;;;14.63;;
24745;SDS011;12845;52.042;6.838;2022-09-09T04:52:19;19.48;;;13.48;;
24745;SDS011;12845;52.042;6.838;2022-09-09T04:54:45;20.45;;;13.40;;
24745;SDS011;12845;52.042;6.838;2022-09-09T04:57:11;20.27;;;12.93;;
24745;SDS011;12845;52.042;6.838;2022-09-09T04:59:36;16.20;;;12.77;;
24745;SDS011;12845;52.042;6.838;2022-09-09T05:02:04;17.20;;;14.05;;
24745;SDS011;12845;52.042;6.838;2022-09-09T05:04:29;17.65;;;13.95;;
24745;SDS011;12845;52.042;6.838;2022-09-09T05:06:55;19.40;;;14.13;;
24745;SDS011;12845;52.042;6.838;2022-09-09T05:09:21;19.00;;;12.93;;
24745;SDS011;12845;52.042;6.838;2022-09-09T05:11:46;18.40;;;12.77;;
24745;SDS011;12845;52.042;6.838;2022-09-09T05:14:11;18.48;;;13.18;;
24745;SDS011;12845;52.042;6.838;2022-09-09T05:16:37;15.85;;;13.52;;
24745;SDS011;12845;52.042;6.838;2022-09-09T05:19:02;17.42;;;13.10;;
24745;SDS011;12845;52.042;6.838;2022-09-09T05:21:28;15.07;;;12.32;;
24745;SDS011;12845;52.042;6.838;2022-09-09T05:23:55;16.83;;;13.15;;
24745;SDS011;12845;52.042;6.838;2022-09-09T05:26:21;14.05;;;11.60;;
24745;SDS011;12845;52.042;6.838;2022-09-09T05:28:47;14.48;;;11.00;;
24745;SDS011;12845;52.042;6.838;2022-09-09T05:31:14;17.08;;;11.35;;
24745;SDS011;12845;52.042;6.838;2022-09-09T05:33:42;17.77;;;11.45;;
24745;SDS011;12845;52.042;6.838;2022-09-09T05:36:11;17.90;;;11.70;;
24745;SDS011;12845;52.042;6.838;2022-09-09T05:38:39;16.60;;;10.20;;
24745;SDS011;12845;52.042;6.838;2022-09-09T05:41:05;16.67;;;10.23;;
24745;SDS011;12845;52.042;6.838;2022-09-09T05:43:31;14.30;;;9.68;;
24745;SDS011;12845;52.042;6.838;2022-09-09T05:50:59;15.07;;;8.68;;
24745;SDS011;12845;52.042;6.838;2022-09-09T05:53:26;11.98;;;8.75;;
24745;SDS011;12845;52.042;6.838;2022-09-09T05:55:59;11.65;;;8.13;;
24745;SDS011;12845;52.042;6.838;2022-09-09T05:58:37;14.77;;;8.40;;
24745;SDS011;12845;52.042;6.838;2022-09-09T06:01:08;10.52;;;7.38;;
24745;SDS011;12845;52.042;6.838;2022-09-09T06:03:35;10.30;;;7.10;;
24745;SDS011;12845;52.042;6.838;2022-09-09T06:06:06;9.13;;;6.47;;
24745;SDS011;12845;52.042;6.838;2022-09-09T06:08:33;11.27;;;7.38;;
24745;SDS011;12845;52.042;6.838;2022-09-09T06:11:09;10.23;;;5.82;;
24745;SDS011;12845;52.042;6.838;2022-09-09T06:13:35;10.95;;;6.10;;
24745;SDS011;12845;52.042;6.838;2022-09-09T06:16:04;14.00;;;6.60;;
24745;SDS011;12845;52.042;6.838;2022-09-09T06:18:30;12.82;;;6.05;;
24745;SDS011;12845;52.042;6.838;2022-09-09T06:20:59;10.73;;;6.10;;
24745;SDS011;12845;52.042;6.838;2022-09-09T06:23:26;10.02;;;5.57;;
24745;SDS011;12845;52.042;6.838;2022-09-09T06:26:03;10.70;;;5.97;;
24745;SDS011;12845;52.042;6.838;2022-09-09T06:28:34;8.70;;;5.88;;
24745;SDS011;12845;52.042;6.838;2022-09-09T06:31:01;10.80;;;5.40;;
24745;SDS011;12845;52.042;6.838;2022-09-09T06:33:26;12.05;;;5.47;;
24745;SDS011;12845;52.042;6.838;2022-09-09T06:35:55;10.93;;;5.30;;
24745;SDS011;12845;52.042;6.838;2022-09-09T06:38:22;8.48;;;5.15;;
24745;SDS011;12845;52.042;6.838;2022-09-09T06:40:54;11.40;;;5.00;;
24745;SDS011;12845;52.042;6.838;2022-09-09T06:43:21;11.60;;;5.47;;
24745;SDS011;12845;52.042;6.838;2022-09-09T06:48:19;8.45;;;4.63;;
24745;SDS011;12845;52.042;6.838;2022-09-09T06:50:44;11.43;;;5.00;;
24745;SDS011;12845;52.042;6.838;2022-09-09T06:53:10;8.23;;;4.97;;
24745;SDS011;12845;52.042;6.838;2022-09-09T06:55:35;11.20;;;4.30;;
24745;SDS011;12845;52.042;6.838;2022-09-09T06:58:00;9.45;;;4.78;;
24745;SDS011;12845;52.042;6.838;2022-09-09T07:00:26;9.15;;;4.43;;
24745;SDS011;12845;52.042;6.838;2022-09-09T07:02:51;10.77;;;4.45;;
24745;SDS011;12845;52.042;6.838;2022-09-09T07:05:17;8.48;;;4.43;;
24745;SDS011;12845;52.042;6.838;2022-09-09T07:07:42;8.43;;;4.65;;
24745;SDS011;12845;52.042;6.838;2022-09-09T07:10:08;9.48;;;4.22;;
24745;SDS011;12845;52.042;6.838;2022-09-09T07:12:33;8.15;;;4.35;;
24745;SDS011;12845;52.042;6.838;2022-09-09T07:14:58;9.00;;;4.30;;
24745;SDS011;12845;52.042;6.838;2022-09-09T07:17:24;9.20;;;4.80;;
24745;SDS011;12845;52.042;6.838;2022-09-09T07:19:49;9.32;;;4.07;;
24745;SDS011;12845;52.042;6.838;2022-09-09T07:22:14;7.93;;;4.00;;
24745;SDS011;12845;52.042;6.838;2022-09-09T07:24:41;6.68;;;4.28;;
24745;SDS011;12845;52.042;6.838;2022-09-09T07:27:06;10.32;;;3.60;;
24745;SDS011;12845;52.042;6.838;2022-09-09T07:29:31;9.32;;;3.58;;
24745;SDS011;12845;52.042;6.838;2022-09-09T07:31:56;7.93;;;3.92;;
24745;SDS011;12845;52.042;6.838;2022-09-09T07:34:23;8.68;;;3.53;;
24745;SDS011;12845;52.042;6.838;2022-09-09T07:36:48;8.57;;;3.22;;
24745;SDS011;12845;52.042;6.838;2022-09-09T07:39:14;9.18;;;3.33;;
24745;SDS011;12845;52.042;6.838;2022-09-09T07:41:43;7.60;;;3.47;;
24745;SDS011;12845;52.042;6.838;2022-09-09T07:44:13;6.72;;;2.78;;
24745;SDS011;12845;52.042;6.838;2022-09-09T07:46:40;7.35;;;3.20;;
24745;SDS011;12845;52.042;6.838;2022-09-09T07:49:06;9.82;;;3.40;;
24745;SDS011;12845;52.042;6.838;2022-09-09T07:51:34;8.88;;;3.20;;
24745;SDS011;12845;52.042;6.838;2022-09-09T07:54:02;5.65;;;3.08;;
24745;SDS011;12845;52.042;6.838;2022-09-09T07:56:30;6.63;;;2.65;;
24745;SDS011;12845;52.042;6.838;2022-09-09T07:58:56;9.60;;;3.30;;
24745;SDS011;12845;52.042;6.838;2022-09-09T08:01:25;11.02;;;3.03;;
24745;SDS011;12845;52.042;6.838;2022-09-09T08:03:55;10.05;;;3.33;;
24745;SDS011;12845;52.042;6.838;2022-09-09T08:06:24;8.65;;;2.90;;
24745;SDS011;12845;52.042;6.838;2022-09-09T08:08:51;8.45;;;3.45;;
24745;SDS011;12845;52.042;6.838;2022-09-09T08:11:18;9.23;;;3.38;;
24745;SDS011;12845;52.042;6.838;2022-09-09T08:13:44;7.75;;;3.15;;
24745;SDS011;12845;52.042;6.838;2022-09-09T08:16:10;8.02;;;2.85;;
24745;SDS011;12845;52.042;6.838;2022-09-09T08:18:38;8.60;;;2.95;;
24745;SDS011;12845;52.042;6.838;2022-09-09T08:23:36;8.52;;;2.70;;
24745;SDS011;12845;52.042;6.838;2022-09-09T08:26:05;7.30;;;2.38;;
24745;SDS011;12845;52.042;6.838;2022-09-09T08:28:32;10.43;;;2.90;;
24745;SDS011;12845;52.042;6.838;2022-09-09T08:31:07;8.75;;;2.72;;
24745;SDS011;12845;52.042;6.838;2022-09-09T08:33:33;9.13;;;2.28;;
24745;SDS011;12845;52.042;6.838;2022-09-09T08:35:58;8.68;;;2.60;;
24745;SDS011;12845;52.042;6.838;2022-09-09T08:38:23;11.68;;;3.08;;
24745;SDS011;12845;52.042;6.838;2022-09-09T08:40:49;8.10;;;2.47;;
24745;SDS011;12845;52.042;6.838;2022-09-09T08:43:24;10.00;;;2.65;;
24745;SDS011;12845;52.042;6.838;2022-09-09T08:45:57;9.35;;;2.13;;
24745;SDS011;12845;52.042;6.838;2022-09-09T08:48:48;6.85;;;2.05;;
24745;SDS011;12845;52.042;6.838;2022-09-09T08:51:25;11.07;;;2.22;;
24745;SDS011;12845;52.042;6.838;2022-09-09T08:53:55;10.45;;;1.90;;
24745;SDS011;12845;52.042;6.838;2022-09-09T08:56:25;9.40;;;1.98;;
24745;SDS011;12845;52.042;6.838;2022-09-09T08:58:52;7.72;;;1.80;;
24745;SDS011;12845;52.042;6.838;2022-09-09T09:04:07;6.35;;;2.17;;
24745;SDS011;12845;52.042;6.838;2022-09-09T09:06:55;5.65;;;2.00;;
24745;SDS011;12845;52.042;6.838;2022-09-09T09:11:48;4.82;;;1.55;;
24745;SDS011;12845;52.042;6.838;2022-09-09T09:19:33;7.60;;;1.88;;
24745;SDS011;12845;52.042;6.838;2022-09-09T09:22:03;7.60;;;2.42;;
24745;SDS011;12845;52.042;6.838;2022-09-09T09:24:38;5.22;;;1.60;;
24745;SDS011;12845;52.042;6.838;2022-09-09T09:27:11;7.43;;;2.17;;
24745;SDS011;12845;52.042;6.838;2022-09-09T09:29:43;6.80;;;1.80;;
24745;SDS011;12845;52.042;6.838;2022-09-09T09:32:14;4.35;;;1.45;;
24745;SDS011;12845;52.042;6.838;2022-09-09T09:34:48;4.40;;;1.65;;
24745;SDS011;12845;52.042;6.838;2022-09-09T09:37:16;9.57;;;1.60;;
24745;SDS011;12845;52.042;6.838;2022-09-09T09:39:46;7.95;;;1.50;;
24745;SDS011;12845;52.042;6.838;2022-09-09T09:42:13;6.45;;;1.67;;
24745;SDS011;12845;52.042;6.838;2022-09-09T09:49:33;5.57;;;1.63;;
24745;SDS011;12845;52.042;6.838;2022-09-09T09:52:05;6.72;;;1.50;;
24745;SDS011;12845;52.042;6.838;2022-09-09T09:54:39;6.25;;;1.48;;
24745;SDS011;12845;52.042;6.838;2022-09-09T09:57:14;5.03;;;1.67;;
24745;SDS011;12845;52.042;6.838;2022-09-09T09:59:41;5.45;;;1.75;;
24745;SDS011;12845;52.042;6.838;2022-09-09T10:02:23;7.40;;;1.85;;
24745;SDS011;12845;52.042;6.838;2022-09-09T10:05:04;5.20;;;1.08;;
24745;SDS011;12845;52.042;6.838;2022-09-09T10:07:33;5.50;;;1.50;;
24745;SDS011;12845;52.042;6.838;2022-09-09T10:09:59;5.32;;;1.23;;
24745;SDS011;12845;52.042;6.838;2022-09-09T10:17:44;4.80;;;1.42;;
24745;SDS011;12845;52.042;6.838;2022-09-09T10:20:16;6.00;;;1.20;;
24745;SDS011;12845;52.042;6.838;2022-09-09T10:22:45;5.57;;;1.17;;
24745;SDS011;12845;52.042;6.838;2022-09-09T10:25:25;5.30;;;1.15;;
24745;SDS011;12845;52.042;6.838;2022-09-09T10:28:08;7.43;;;1.30;;
24745;SDS011;12845;52.042;6.838;2022-09-09T10:30:54;5.30;;;1.38;;
24745;SDS011;12845;52.042;6.838;2022-09-09T10:33:57;5.30;;;1.25;;
24745;SDS011;12845;52.042;6.838;2022-09-09T10:36:46;6.50;;;1.85;;
24745;SDS011;12845;52.042;6.838;2022-09-09T10:44:36;7.95;;;1.13;;
24745;SDS011;12845;52.042;6.838;2022-09-09T10:47:15;4.53;;;1.30;;
24745;SDS011;12845;52.042;6.838;2022-09-09T10:52:31;4.30;;;1.20;;
24745;SDS011;12845;52.042;6.838;2022-09-09T10:57:45;5.50;;;1.00;;
24745;SDS011;12845;52.042;6.838;2022-09-09T11:03:38;6.47;;;1.27;;
24745;SDS011;12845;52.042;6.838;2022-09-09T11:06:07;5.95;;;0.90;;
24745;SDS011;12845;52.042;6.838;2022-09-09T11:08:42;4.35;;;1.30;;
24745;SDS011;12845;52.042;6.838;2022-09-09T11:11:12;5.25;;;1.02;;
24745;SDS011;12845;52.042;6.838;2022-09-09T11:18:50;4.82;;;1.80;;
24745;SDS011;12845;52.042;6.838;2022-09-09T11:21:25;3.25;;;1.40;;
24745;SDS011;12845;52.042;6.838;2022-09-09T11:23:58;5.55;;;1.13;;
24745;SDS011;12845;52.042;6.838;2022-09-09T11:26:33;5.00;;;1.05;;
24745;SDS011;12845;52.042;6.838;2022-09-09T11:34:38;5.65;;;1.23;;
24745;SDS011;12845;52.042;6.838;2022-09-09T11:37:10;5.97;;;1.27;;
24745;SDS011;12845;52.042;6.838;2022-09-09T11:42:19;4.18;;;1.20;;
24745;SDS011;12845;52.042;6.838;2022-09-09T11:44:47;5.50;;;1.10;;
24745;SDS011;12845;52.042;6.838;2022-09-09T11:49:48;5.57;;;1.25;;
24745;SDS011;12845;52.042;6.838;2022-09-09T11:52:25;3.75;;;0.80;;
24745;SDS011;12845;52.042;6.838;2022-09-09T11:55:35;4.20;;;1.05;;
24745;SDS011;12845;52.042;6.838;2022-09-09T11:58:02;4.45;;;1.10;;
24745;SDS011;12845;52.042;6.838;2022-09-09T12:00:37;4.22;;;1.20;;
24745;SDS011;12845;52.042;6.838;2022-09-09T12:03:09;6.47;;;1.70;;
24745;SDS011;12845;52.042;6.838;2022-09-09T12:06:08;4.40;;;1.20;;
24745;SDS011;12845;52.042;6.838;2022-09-09T12:08:46;4.70;;;1.02;;
24745;SDS011;12845;52.042;6.838;2022-09-09T12:11:26;3.70;;;0.90;;
24745;SDS011;12845;52.042;6.838;2022-09-09T12:13:56;5.47;;;1.15;;
24745;SDS011;12845;52.042;6.838;2022-09-09T12:16:34;4.75;;;1.00;;
24745;SDS011;12845;52.042;6.838;2022-09-09T12:19:03;7.05;;;1.30;;
24745;SDS011;12845;52.042;6.838;2022-09-09T12:21:42;5.90;;;1.20;;
24745;SDS011;12845;52.042;6.838;2022-09-09T12:24:19;5.60;;;1.20;;
24745;SDS011;12845;52.042;6.838;2022-09-09T12:27:15;3.80;;;0.90;;
24745;SDS011;12845;52.042;6.838;2022-09-09T12:32:25;3.22;;;1.00;;
24745;SDS011;12845;52.042;6.838;2022-09-09T12:34:53;4.63;;;0.98;;
24745;SDS011;12845;52.042;6.838;2022-09-09T12:40:01;6.10;;;1.40;;
24745;SDS011;12845;52.042;6.838;2022-09-09T12:42:29;5.60;;;0.85;;
24745;SDS011;12845;52.042;6.838;2022-09-09T12:44:55;6.72;;;1.65;;
24745;SDS011;12845;52.042;6.838;2022-09-09T12:47:24;5.07;;;1.02;;
24745;SDS011;12845;52.042;6.838;2022-09-09T12:49:56;3.55;;;1.40;;
24745;SDS011;12845;52.042;6.838;2022-09-09T12:52:31;5.13;;;1.08;;
24745;SDS011;12845;52.042;6.838;2022-09-09T12:55:02;5.40;;;1.30;;
24745;SDS011;12845;52.042;6.838;2022-09-09T12:57:32;5.18;;;1.10;;
24745;SDS011;12845;52.042;6.838;2022-09-09T13:00:05;4.82;;;1.23;;
24745;SDS011;12845;52.042;6.838;2022-09-09T13:02:34;4.13;;;1.60;;
24745;SDS011;12845;52.042;6.838;2022-09-09T13:05:13;6.43;;;1.45;;
24745;SDS011;12845;52.042;6.838;2022-09-09T13:07:39;3.15;;;1.05;;
24745;SDS011;12845;52.042;6.838;2022-09-09T13:10:05;4.20;;;1.30;;
24745;SDS011;12845;52.042;6.838;2022-09-09T13:12:31;5.47;;;1.13;;
24745;SDS011;12845;52.042;6.838;2022-09-09T13:14:57;4.28;;;1.05;;
24745;SDS011;12845;52.042;6.838;2022-09-09T13:17:26;4.90;;;1.17;;
24745;SDS011;12845;52.042;6.838;2022-09-09T13:19:55;4.57;;;1.50;;
24745;SDS011;12845;52.042;6.838;2022-09-09T13:25:00;4.40;;;1.60;;
24745;SDS011;12845;52.042;6.838;2022-09-09T13:27:30;4.57;;;1.67;;
24745;SDS011;12845;52.042;6.838;2022-09-09T13:30:18;2.85;;;1.35;;
24745;SDS011;12845;52.042;6.838;2022-09-09T13:35:55;6.68;;;2.20;;
24745;SDS011;12845;52.042;6.838;2022-09-09T13:38:22;6.03;;;1.63;;
24745;SDS011;12845;52.042;6.838;2022-09-09T13:43:22;6.55;;;2.00;;
24745;SDS011;12845;52.042;6.838;2022-09-09T13:51:35;7.35;;;2.30;;
24745;SDS011;12845;52.042;6.838;2022-09-09T13:54:12;5.10;;;2.00;;
24745;SDS011;12845;52.042;6.838;2022-09-09T13:56:39;5.80;;;1.92;;
24745;SDS011;12845;52.042;6.838;2022-09-09T13:59:06;4.75;;;2.10;;
24745;SDS011;12845;52.042;6.838;2022-09-09T14:01:36;6.28;;;2.40;;
24745;SDS011;12845;52.042;6.838;2022-09-09T14:04:02;4.28;;;2.20;;
24745;SDS011;12845;52.042;6.838;2022-09-09T14:06:28;5.90;;;2.50;;
24745;SDS011;12845;52.042;6.838;2022-09-09T14:08:54;4.20;;;2.33;;
24745;SDS011;12845;52.042;6.838;2022-09-09T14:11:21;4.70;;;1.92;;
24745;SDS011;12845;52.042;6.838;2022-09-09T14:13:47;6.00;;;2.20;;
24745;SDS011;12845;52.042;6.838;2022-09-09T14:16:15;8.82;;;2.60;;
24745;SDS011;12845;52.042;6.838;2022-09-09T14:18:42;6.80;;;2.10;;
24745;SDS011;12845;52.042;6.838;2022-09-09T14:21:09;4.72;;;2.10;;
24745;SDS011;12845;52.042;6.838;2022-09-09T14:23:34;5.20;;;1.90;;
24745;SDS011;12845;52.042;6.838;2022-09-09T14:26:00;4.25;;;1.55;;
24745;SDS011;12845;52.042;6.838;2022-09-09T14:28:26;5.60;;;1.88;;
24745;SDS011;12845;52.042;6.838;2022-09-09T14:30:51;4.25;;;1.95;;
24745;SDS011;12845;52.042;6.838;2022-09-09T14:33:17;3.33;;;1.75;;
24745;SDS011;12845;52.042;6.838;2022-09-09T14:35:42;3.30;;;1.73;;
24745;SDS011;12845;52.042;6.838;2022-09-09T14:38:09;3.90;;;1.80;;
24745;SDS011;12845;52.042;6.838;2022-09-09T14:40:35;3.72;;;1.38;;
24745;SDS011;12845;52.042;6.838;2022-09-09T14:43:02;4.35;;;1.90;;
24745;SDS011;12845;52.042;6.838;2022-09-09T14:45:28;3.90;;;2.00;;
24745;SDS011;12845;52.042;6.838;2022-09-09T14:47:53;4.13;;;1.92;;
24745;SDS011;12845;52.042;6.838;2022-09-09T14:50:20;7.43;;;2.17;;
24745;SDS011;12845;52.042;6.838;2022-09-09T14:52:46;6.20;;;2.03;;
24745;SDS011;12845;52.042;6.838;2022-09-09T14:55:12;4.30;;;1.80;;
24745;SDS011;12845;52.042;6.838;2022-09-09T14:57:38;3.45;;;1.58;;
24745;SDS011;12845;52.042;6.838;2022-09-09T15:00:05;4.88;;;1.88;;
24745;SDS011;12845;52.042;6.838;2022-09-09T15:02:31;4.50;;;1.90;;
24745;SDS011;12845;52.042;6.838;2022-09-09T15:04:57;3.90;;;1.40;;
24745;SDS011;12845;52.042;6.838;2022-09-09T15:07:23;6.15;;;1.90;;
24745;SDS011;12845;52.042;6.838;2022-09-09T15:09:53;6.68;;;1.90;;
24745;SDS011;12845;52.042;6.838;2022-09-09T15:12:19;4.70;;;1.83;;
24745;SDS011;12845;52.042;6.838;2022-09-09T15:14:45;4.53;;;1.98;;
24745;SDS011;12845;52.042;6.838;2022-09-09T15:17:11;4.72;;;2.00;;
24745;SDS011;12845;52.042;6.838;2022-09-09T15:19:37;6.18;;;2.05;;
24745;SDS011;12845;52.042;6.838;2022-09-09T15:22:03;8.60;;;2.47;;
24745;SDS011;12845;52.042;6.838;2022-09-09T15:24:30;5.22;;;2.28;;
24745;SDS011;12845;52.042;6.838;2022-09-09T15:26:57;6.20;;;2.28;;
24745;SDS011;12845;52.042;6.838;2022-09-09T15:29:23;3.50;;;1.80;;
24745;SDS011;12845;52.042;6.838;2022-09-09T15:31:49;7.38;;;2.20;;
24745;SDS011;12845;52.042;6.838;2022-09-09T15:34:14;4.80;;;1.83;;
24745;SDS011;12845;52.042;6.838;2022-09-09T15:36:41;5.85;;;1.73;;
24745;SDS011;12845;52.042;6.838;2022-09-09T15:39:11;3.67;;;1.45;;
24745;SDS011;12845;52.042;6.838;2022-09-09T15:41:40;5.15;;;1.48;;
24745;SDS011;12845;52.042;6.838;2022-09-09T15:44:06;5.53;;;1.63;;
24745;SDS011;12845;52.042;6.838;2022-09-09T15:46:32;3.85;;;1.50;;
24745;SDS011;12845;52.042;6.838;2022-09-09T15:51:29;7.03;;;1.77;;
24745;SDS011;12845;52.042;6.838;2022-09-09T15:53:55;4.28;;;1.75;;
24745;SDS011;12845;52.042;6.838;2022-09-09T15:58:52;4.10;;;1.50;;
24745;SDS011;12845;52.042;6.838;2022-09-09T16:01:17;3.35;;;1.50;;
24745;SDS011;12845;52.042;6.838;2022-09-09T16:03:44;5.15;;;1.80;;
24745;SDS011;12845;52.042;6.838;2022-09-09T16:06:11;4.90;;;1.90;;
24745;SDS011;12845;52.042;6.838;2022-09-09T16:08:39;5.10;;;2.00;;
24745;SDS011;12845;52.042;6.838;2022-09-09T16:13:38;3.92;;;1.10;;
24745;SDS011;12845;52.042;6.838;2022-09-09T16:16:04;2.40;;;1.10;;
24745;SDS011;12845;52.042;6.838;2022-09-09T16:18:38;2.47;;;0.95;;
24745;SDS011;12845;52.042;6.838;2022-09-09T16:21:08;3.50;;;1.30;;
24745;SDS011;12845;52.042;6.838;2022-09-09T16:23:36;3.45;;;1.15;;
24745;SDS011;12845;52.042;6.838;2022-09-09T16:26:01;4.05;;;1.50;;
24745;SDS011;12845;52.042;6.838;2022-09-09T16:28:27;4.20;;;1.30;;
24745;SDS011;12845;52.042;6.838;2022-09-09T16:30:53;4.70;;;1.30;;
24745;SDS011;12845;52.042;6.838;2022-09-09T16:33:18;2.72;;;1.05;;
24745;SDS011;12845;52.042;6.838;2022-09-09T16:35:44;3.85;;;1.67;;
24745;SDS011;12845;52.042;6.838;2022-09-09T16:38:09;3.85;;;1.38;;
24745;SDS011;12845;52.042;6.838;2022-09-09T16:40:35;5.10;;;1.52;;
24745;SDS011;12845;52.042;6.838;2022-09-09T16:43:04;4.88;;;1.40;;
24745;SDS011;12845;52.042;6.838;2022-09-09T16:45:30;3.33;;;1.52;;
24745;SDS011;12845;52.042;6.838;2022-09-09T16:47:57;3.25;;;1.50;;
24745;SDS011;12845;52.042;6.838;2022-09-09T16:50:22;2.85;;;1.60;;
24745;SDS011;12845;52.042;6.838;2022-09-09T16:52:50;4.18;;;1.52;;
24745;SDS011;12845;52.042;6.838;2022-09-09T16:55:16;4.45;;;1.88;;